Flight Track Log - Related Links

Times and Time Zones

All times are in EDT time to prevent confusion due to time zone crossing. See the WWW741 flight status page for this flight to view local times or setup timezone preferences in your user account.

Time Position Orientation Groundspeed Altitude Reporting Facility
EDT Latitude Longitude Course Direction KTS MPH feet Rate Location/Type
Fri 11:03:40 AM 36.0753 -115.1739 271° West 148 170 3,400  Level Los Angeles Center
Fri 11:05:14 AM 36.0761 -115.2919 271° West 256 295 8,200 3,192 Climbing Los Angeles Center
Fri 11:06:16 AM 36.1183 -115.3739 303° West 292 336 11,700 3,629 Climbing Los Angeles Center
Fri 11:07:18 AM 36.2011 -115.4406 327° Northwest 340 391 15,700 3,677 Climbing Los Angeles Center
Fri 11:08:20 AM 36.2814 -115.5186 322° Northwest 364 419 19,300 2,081 Climbing Los Angeles Center
Fri 11:09:22 AM 36.3503 -115.6406 305° West 393 452 20,000 339 Climbing Los Angeles Center
Fri 11:10:24 AM 36.4139 -115.7536 305° West 396 456 20,000  Level Los Angeles Center
Fri 11:11:38 AM 36.4953 -115.8997 305° West 396 456 20,000  Level Los Angeles Center
Fri 11:12:40 AM 36.5575 -116.0103 305° West 400 460 20,000  Level Los Angeles Center
Fri 11:13:42 AM 36.6478 -116.0867 326° Northwest 403 464 20,000  Level Los Angeles Center
Fri 11:14:44 AM 36.7483 -116.1483 334° Northwest 400 460 20,000  Level Los Angeles Center
Fri 11:15:46 AM 36.8667 -116.2222 333° Northwest 398 458 20,000  Level Los Angeles Center
Fri 11:16:48 AM 36.9669 -116.2842 334° Northwest 399 459 20,000 -339 Level Los Angeles Center
Fri 11:17:50 AM 37.0633 -116.3458 333° Northwest 393 452 19,300 -1,306 Descending Los Angeles Center
Fri 11:18:52 AM 37.1508 -116.4008 333° Northwest 361 415 17,300 -2,177 Descending Los Angeles Center
Fri 11:19:54 AM 37.2381 -116.4553 334° Northwest 351 404 14,800 -2,371 Descending Los Angeles Center
Fri 11:20:56 AM 37.3219 -116.5094 333° Northwest 342 394 12,400 -1,872 Descending Los Angeles Center
Fri 11:21:59 AM 37.4164 -116.5653 335° Northwest 314 361 10,900 -1,597 Descending Los Angeles Center
Fri 11:23:00 AM 37.4894 -116.6081 335° Northwest 292 336 9,100 -1,210 Descending Los Angeles Center
Fri 11:24:03 AM 37.5581 -116.6472 336° Northwest 277 319 8,400 -624 Descending Los Angeles Center
Fri 11:25:05 AM 37.6242 -116.6867 335° Northwest 268 308 7,800 -484 Descending Los Angeles Center
Fri 11:26:07 AM 37.6853 -116.7228 335° Northwest 255 293 7,400 -532 Descending Los Angeles Center
Fri 11:27:09 AM 37.7275 -116.7436 339° North 196 226 6,700 -774 Descending Los Angeles Center
Fri 11:28:11 AM 37.7708 -116.7678 336° Northwest 158 182 5,800 -581 Descending Los Angeles Center
Fri 11:29:13 AM 37.7992 -116.7819 338° Northwest 147 169 5,500 -290 Descending Los Angeles Center

Login

Don't have an account? Register now (free) for customized features, flight alerts, and more!